Airfield :
LOGIN :

Register | Disclaimer

   EN    FR    IT 

 










Legend :    VFR   Marginal VFR   IFR   Intensive IFR   Very Intensive IFR
Visi :
Ceiling :
>= 8 km
>= 3000ft
5 to 8 km
1000 to 3000 ft
1500m to 5 km
500 to 1000 ft
800 to 1500m
200 to 500 ft
< 800m
< 200 ft
Symbols :   Thunderstorms  Fog  Heavy snow  Heavy precipitations  Wind > 20 kt
SIGMETs :     Misc.  Thunderstorms  Icing  Turbulence  Mountain Waves  Volcanic Ashes







- Airport Elevation : 427 ft
- IATA code : CIA


LIRA - Roma Ciampino

CURRENT METAR :
  • 200650Z 01005KT 310V060 9000 -RA FEW025CB BKN030 12/10 Q1009 RERA

EXPIRED METARs :
  • 200620Z 33006KT 240V350 9000 -RA FEW020TCU BKN025 13/10 Q1009 RERA
  • 200550Z 14003KT 110V180 8000 RA SCT020 BKN025 14/11 Q1009
  • 200520Z 13005KT 9000 RA FEW020 BKN025 13/11 Q1008
  • 200450Z 14005KT 9999 BKN025 12/11 Q1008
  • 200420Z 15004KT 9999 FEW025 BKN050 12/10 Q1008
  • 200350Z 14004KT 9999 FEW025 BKN060 12/10 Q1008

TAF AMD TAF LIRA
Valid from the 20 at 06:00 until the 21 at 06:00 UTC


200612Z 2006/2106 VRB05KT 9999 SCT025
TEMPO 2006/2012 TSRA
BECMG 2010/2012 21010KT
TEMPO 2012/2016 4000 SHRA
BECMG 2018/2020 VRB05KT
No reported NOTAMs for that airfield.
2 SIGMETs reported for the Roma FIR (LIRR) :
 
Severe turbulence
LIRR SIGMET 2 VALID 200430/200800 LIIB
LIRR ROMA FIR SEV TURB FCST SE OF LINE N3737 E01056 - N3936 E01615 FL270/340 MOV E NC=
Embedded thunderstorms
LIRR SIGMET 1 VALID 200400/200800 LIIB
LIRR ROMA FIR EMBD TS FCST WI N4118 E00948 - N3811 E00958 - N3858 E00757 - N4059 E00800 - N4119 E00819 - N4118 E00948 TOP FL300 MOV E NC=



MET'MAP, your aeronautical weather chart ! - Copyright ORBIFLY December 2007 - Disclaimer

ORBIFLY MET'MAP TEAM :

Programming & Development : Alexandra Zaïnal
Concept & Development : Baudouin d'Aumeries
Co-Development & Prog : Marc-Olivier Méhu
Technical & hardware support : Manuel Goepfert

Contact : metmap@orbifly.com




SOURCES & CREDITS :

   NOAA